Bareilly — A8KG7 — position and weather

sailwx.info

Track history (hours):
 
Tides and Currents Weather Stations Pressure Air Temp Water Temp Dewpoint Dewpoint Depression Visibility Wind Speed Wind Dir Waves Ship Positions

Bareilly

Last reported at 2014-Jul-28 09:32 UTC. Time now 2014-Jul-29 18:52 UTC.
Position N 60°01' E 028°30'.

Length 243 m; draft 8.5 m.

Type: Ship. MMSI: 636013054.

Date/timePositionNaut miles runAvg speedWind from/ knotsBaromVisibWave heightAir tempDewpointWater temp
2014-Jul-28 09:32N 60°01' E 028°30'0 0.0
2014-Jul-28 06:29N 60°01' E 028°30'0 0.0
2014-Jul-28 05:32N 60°01' E 028°30'0 0.0
2014-Jul-28 02:20N 60°01' E 028°30'0 0.0
2014-Jul-27 12:14N 60°01' E 028°30'0 0.0
2014-Jul-27 11:29N 60°01' E 028°30'0 0.0
2014-Jul-27 04:32N 60°01' E 028°30'0 0.0
2014-Jul-27 03:32N 60°01' E 028°30'22 3.1
2014-Jul-26 20:20N 60°11' E 027°49'1113.5
2014-Jul-26 19:33N 60°06' E 027°30'1413.8
2014-Jul-26 18:33N 59°59' E 027°07'1313.5
2014-Jul-26 17:34N 59°60' E 026°40'1413.6
2014-Jul-26 16:33N 59°56' E 026°14'1413.6
2014-Jul-26 15:33N 59°52' E 025°48'1413.7
2014-Jul-26 14:33N 59°49' E 025°21'1413.7
2014-Jul-26 13:33N 59°46' E 024°55'1413.8
2014-Jul-26 12:33N 59°43' E 024°28'1414.1
2014-Jul-26 11:34N 59°39' E 024°02'1413.5
2014-Jul-26 10:34N 59°35' E 023°36'1413.6
2014-Jul-26 09:34N 59°31' E 023°10'1413.8
2014-Jul-26 08:33N 59°27' E 022°44'1413.9
2014-Jul-26 07:34N 59°19' E 022°22'1413.7
2014-Jul-26 06:34N 59°10' E 022°01'1413.7
2014-Jul-26 05:33N 59°02' E 021°40'1413.5
2014-Jul-26 04:33N 58°51' E 021°24'1413.6
2014-Jul-26 03:33N 58°40' E 021°08'1413.8
2014-Jul-26 02:33N 58°29' E 020°52'1413.8
2014-Jul-26 01:33N 58°18' E 020°36'4213.6
2014-Jul-25 22:27N 57°45' E 019°48'1313.6
2014-Jul-25 21:28N 57°34' E 019°33'1313.6
2014-Jul-25 20:31N 57°24' E 019°19'1313.4
2014-Jul-25 19:33N 57°13' E 019°04'1413.6
2014-Jul-25 18:33N 57°02' E 018°49'1713.6
2014-Jul-25 17:18N 56°49' E 018°30'1013.4
2014-Jul-25 16:33N 56°42' E 018°16'1313.5
2014-Jul-25 15:34N 56°34' E 017°57'1313.4
2014-Jul-25 14:33N 56°26' E 017°38'1313.4
2014-Jul-25 13:33N 56°18' E 017°18'1313.2
2014-Jul-25 12:33N 56°09' E 017°01'1212.4
2014-Jul-25 11:33N 56°02' E 016°43'1313.1
2014-Jul-25 10:34N 55°56' E 016°22'1313.1
2014-Jul-25 09:34N 55°49' E 016°02'1313.1
2014-Jul-25 08:34N 55°43' E 015°41'1313.2
2014-Jul-25 07:33N 55°37' E 015°21'1313.3
2014-Jul-25 06:34N 55°30' E 015°00'1313.5
2014-Jul-25 05:33N 55°24' E 014°39'1313.5
2014-Jul-25 04:34N 55°13' E 014°24'1313.3
2014-Jul-25 03:33N 55°03' E 014°10'1313.0
2014-Jul-25 02:33N 54°58' E 013°49'1313.2
2014-Jul-25 01:33N 54°53' E 013°27'1313.0
2014-Jul-25 00:33N 54°49' E 013°06'1313.2
2014-Jul-24 23:34N 54°45' E 012°45'1313.0
2014-Jul-24 22:33N 54°37' E 012°26'1211.8
2014-Jul-24 21:33N 54°27' E 012°15'1111.3
2014-Jul-24 20:33N 54°25' E 011°56'1313.0
2014-Jul-24 19:33N 54°28' E 011°35'1212.4
2014-Jul-24 18:33N 54°34' E 011°15'1110.8
2014-Jul-24 17:33N 54°39' E 010°59'1110.6
2014-Jul-24 16:33N 54°49' E 010°51'1512.9
2014-Jul-24 15:25N 55°02' E 011°01'7011.9
2014-Jul-24 09:30N 56°13' E 011°05'1212.6
2014-Jul-24 08:33N 56°24' E 011°06'1211.7
2014-Jul-24 07:33N 56°32' E 011°23'1414.1
2014-Jul-24 06:33N 56°41' E 011°42'1111.2
2014-Jul-24 05:34N 56°51' E 011°49'1413.7
2014-Jul-24 04:34N 57°04' E 011°39'1413.9
2014-Jul-24 03:33N 57°17' E 011°31'1312.8
2014-Jul-24 02:33N 57°29' E 011°21'1313.1
2014-Jul-24 01:33N 57°38' E 011°03'1313.3
2014-Jul-24 00:34N 57°47' E 010°45'1212.3
2014-Jul-23 23:33N 57°52' E 010°25'1313.4
2014-Jul-23 22:33N 57°53' E 009°59'1413.5
2014-Jul-23 21:34N 57°46' E 009°37'1513.9
2014-Jul-23 20:27N 57°39' E 009°12'13213.2
2014-Jul-23 10:24N 55°52' E 006°49'4513.6
2014-Jul-23 07:06N 55°12' E 006°16'713.8
2014-Jul-23 06:34N 55°05' E 006°10'1413.8
2014-Jul-23 05:33N 54°52' E 006°00'1813.9
2014-Jul-23 04:17N 54°37' E 005°46'1014.0
2014-Jul-23 03:33N 54°29' E 005°33'1413.9
2014-Jul-23 02:33N 54°20' E 005°17'1413.6
2014-Jul-23 01:33N 54°10' E 005°01'1313.3
2014-Jul-23 00:33N 54°00' E 004°45'1313.0
2014-Jul-22 23:33N 53°51' E 004°29'1312.7
2014-Jul-22 22:33N 53°42' E 004°13'1312.8
2014-Jul-22 21:33N 53°35' E 003°56'1212.4
2014-Jul-22 20:33N 53°26' E 003°41'1212.5
2014-Jul-22 19:33N 53°14' E 003°33'1212.1
2014-Jul-22 18:33N 53°03' E 003°26'1211.7
2014-Jul-22 17:33N 52°52' E 003°19'1211.8
2014-Jul-22 16:33N 52°42' E 003°09'1212.0
2014-Jul-22 15:33N 52°31' E 002°59'1412.8
2014-Jul-22 14:27N 52°19' E 002°48'1713.1
2014-Jul-22 13:07N 52°02' E 002°41'813.7
2014-Jul-22 12:33N 51°55' E 002°41'1313.1
2014-Jul-22 11:33N 51°43' E 002°30'1413.5
2014-Jul-22 10:33N 51°32' E 002°19'1313.3
2014-Jul-22 09:33N 51°21' E 002°07'1312.8
2014-Jul-22 08:33N 51°11' E 001°55'1413.6
2014-Jul-22 07:33N 51°02' E 001°39'1313.3
2014-Jul-22 06:33N 50°51' E 001°26'1313.0
2014-Jul-22 05:33N 50°39' E 001°16'1413.9
2014-Jul-22 04:33N 50°30' E 001°00'1614.3
2014-Jul-22 03:26N 50°26' E 000°36'1214.1
2014-Jul-22 02:33N 50°22' E 000°17'4212.9
2014-Jul-21 23:18N 50°11' W 000°46'912.0
2014-Jul-21 22:33N 50°09' W 000°60'1211.7
2014-Jul-21 21:30N 50°07' W 001°18'1111.7
2014-Jul-21 20:33N 50°04' W 001°35'312.0
2014-Jul-21 20:18N 50°03' W 001°40'912.3
2014-Jul-21 19:33N 49°59' W 001°53'1413.3
2014-Jul-21 18:28N 49°55' W 002°14'  
2014-Jul-19 04:30N 38°11' W 009°41'1313.4
2014-Jul-19 03:33N 37°59' W 009°37'1413.5
2014-Jul-19 02:33N 37°45' W 009°34'1313.4
2014-Jul-19 01:33N 37°32' W 009°31'5112.8
2014-Jul-18 21:33N 36°44' W 009°07'1313.0
2014-Jul-18 20:33N 36°43' W 008°52'1313.2
2014-Jul-18 19:33N 36°44' W 008°35'1312.9
2014-Jul-18 18:33N 36°45' W 008°19'1212.3
2014-Jul-18 17:33N 36°46' W 008°04'1212.0
2014-Jul-18 16:33N 36°47' W 007°49'1212.2
2014-Jul-18 15:33N 36°48' W 007°34'1312.7
2014-Jul-18 14:33N 36°49' W 007°18'  
Track history (hours):
 
Tides and Currents Weather Stations Pressure Air Temp Water Temp Dewpoint Dewpoint Depression Visibility Wind Speed Wind Dir Waves Ship Positions

Bareilly

Last reported at 2014-Jul-28 09:32 UTC. Time now 2014-Jul-29 18:52 UTC.
Position N 60°01' E 028°30'.

Length 243 m; draft 8.5 m.

Type: Ship. MMSI: 636013054.

Date/timePositionNaut miles runAvg speedWind from/ knotsBaromVisibWave heightAir tempDewpointWater temp
2014-Jul-28 09:32N 60°01' E 028°30'0 0.0
2014-Jul-28 06:29N 60°01' E 028°30'0 0.0
2014-Jul-28 05:32N 60°01' E 028°30'0 0.0
2014-Jul-28 02:20N 60°01' E 028°30'0 0.0
2014-Jul-27 12:14N 60°01' E 028°30'0 0.0
2014-Jul-27 11:29N 60°01' E 028°30'0 0.0
2014-Jul-27 04:32N 60°01' E 028°30'0 0.0
2014-Jul-27 03:32N 60°01' E 028°30'22 3.1
2014-Jul-26 20:20N 60°11' E 027°49'1113.5
2014-Jul-26 19:33N 60°06' E 027°30'1413.8
2014-Jul-26 18:33N 59°59' E 027°07'1313.5
2014-Jul-26 17:34N 59°60' E 026°40'1413.6
2014-Jul-26 16:33N 59°56' E 026°14'1413.6
2014-Jul-26 15:33N 59°52' E 025°48'1413.7
2014-Jul-26 14:33N 59°49' E 025°21'1413.7
2014-Jul-26 13:33N 59°46' E 024°55'1413.8
2014-Jul-26 12:33N 59°43' E 024°28'1414.1
2014-Jul-26 11:34N 59°39' E 024°02'1413.5
2014-Jul-26 10:34N 59°35' E 023°36'1413.6
2014-Jul-26 09:34N 59°31' E 023°10'1413.8
2014-Jul-26 08:33N 59°27' E 022°44'1413.9
2014-Jul-26 07:34N 59°19' E 022°22'1413.7
2014-Jul-26 06:34N 59°10' E 022°01'1413.7
2014-Jul-26 05:33N 59°02' E 021°40'1413.5
2014-Jul-26 04:33N 58°51' E 021°24'1413.6
2014-Jul-26 03:33N 58°40' E 021°08'1413.8
2014-Jul-26 02:33N 58°29' E 020°52'1413.8
2014-Jul-26 01:33N 58°18' E 020°36'4213.6
2014-Jul-25 22:27N 57°45' E 019°48'1313.6
2014-Jul-25 21:28N 57°34' E 019°33'1313.6
2014-Jul-25 20:31N 57°24' E 019°19'1313.4
2014-Jul-25 19:33N 57°13' E 019°04'1413.6
2014-Jul-25 18:33N 57°02' E 018°49'1713.6
2014-Jul-25 17:18N 56°49' E 018°30'1013.4
2014-Jul-25 16:33N 56°42' E 018°16'1313.5
2014-Jul-25 15:34N 56°34' E 017°57'1313.4
2014-Jul-25 14:33N 56°26' E 017°38'1313.4
2014-Jul-25 13:33N 56°18' E 017°18'1313.2
2014-Jul-25 12:33N 56°09' E 017°01'1212.4
2014-Jul-25 11:33N 56°02' E 016°43'1313.1
2014-Jul-25 10:34N 55°56' E 016°22'1313.1
2014-Jul-25 09:34N 55°49' E 016°02'1313.1
2014-Jul-25 08:34N 55°43' E 015°41'1313.2
2014-Jul-25 07:33N 55°37' E 015°21'1313.3
2014-Jul-25 06:34N 55°30' E 015°00'1313.5
2014-Jul-25 05:33N 55°24' E 014°39'1313.5
2014-Jul-25 04:34N 55°13' E 014°24'1313.3
2014-Jul-25 03:33N 55°03' E 014°10'1313.0
2014-Jul-25 02:33N 54°58' E 013°49'1313.2
2014-Jul-25 01:33N 54°53' E 013°27'1313.0
2014-Jul-25 00:33N 54°49' E 013°06'1313.2
2014-Jul-24 23:34N 54°45' E 012°45'1313.0
2014-Jul-24 22:33N 54°37' E 012°26'1211.8
2014-Jul-24 21:33N 54°27' E 012°15'1111.3
2014-Jul-24 20:33N 54°25' E 011°56'1313.0
2014-Jul-24 19:33N 54°28' E 011°35'1212.4
2014-Jul-24 18:33N 54°34' E 011°15'1110.8
2014-Jul-24 17:33N 54°39' E 010°59'1110.6
2014-Jul-24 16:33N 54°49' E 010°51'1512.9
2014-Jul-24 15:25N 55°02' E 011°01'7011.9
2014-Jul-24 09:30N 56°13' E 011°05'1212.6
2014-Jul-24 08:33N 56°24' E 011°06'1211.7
2014-Jul-24 07:33N 56°32' E 011°23'1414.1
2014-Jul-24 06:33N 56°41' E 011°42'1111.2
2014-Jul-24 05:34N 56°51' E 011°49'1413.7
2014-Jul-24 04:34N 57°04' E 011°39'1413.9
2014-Jul-24 03:33N 57°17' E 011°31'1312.8
2014-Jul-24 02:33N 57°29' E 011°21'1313.1
2014-Jul-24 01:33N 57°38' E 011°03'1313.3
2014-Jul-24 00:34N 57°47' E 010°45'1212.3
2014-Jul-23 23:33N 57°52' E 010°25'1313.4
2014-Jul-23 22:33N 57°53' E 009°59'1413.5
2014-Jul-23 21:34N 57°46' E 009°37'1513.9
2014-Jul-23 20:27N 57°39' E 009°12'13213.2
2014-Jul-23 10:24N 55°52' E 006°49'4513.6
2014-Jul-23 07:06N 55°12' E 006°16'713.8
2014-Jul-23 06:34N 55°05' E 006°10'1413.8
2014-Jul-23 05:33N 54°52' E 006°00'1813.9
2014-Jul-23 04:17N 54°37' E 005°46'1014.0
2014-Jul-23 03:33N 54°29' E 005°33'1413.9
2014-Jul-23 02:33N 54°20' E 005°17'1413.6
2014-Jul-23 01:33N 54°10' E 005°01'1313.3
2014-Jul-23 00:33N 54°00' E 004°45'1313.0
2014-Jul-22 23:33N 53°51' E 004°29'1312.7
2014-Jul-22 22:33N 53°42' E 004°13'1312.8
2014-Jul-22 21:33N 53°35' E 003°56'1212.4
2014-Jul-22 20:33N 53°26' E 003°41'1212.5
2014-Jul-22 19:33N 53°14' E 003°33'1212.1
2014-Jul-22 18:33N 53°03' E 003°26'1211.7
2014-Jul-22 17:33N 52°52' E 003°19'1211.8
2014-Jul-22 16:33N 52°42' E 003°09'1212.0
2014-Jul-22 15:33N 52°31' E 002°59'1412.8
2014-Jul-22 14:27N 52°19' E 002°48'1713.1
2014-Jul-22 13:07N 52°02' E 002°41'813.7
2014-Jul-22 12:33N 51°55' E 002°41'1313.1
2014-Jul-22 11:33N 51°43' E 002°30'1413.5
2014-Jul-22 10:33N 51°32' E 002°19'1313.3
2014-Jul-22 09:33N 51°21' E 002°07'1312.8
2014-Jul-22 08:33N 51°11' E 001°55'1413.6
2014-Jul-22 07:33N 51°02' E 001°39'1313.3
2014-Jul-22 06:33N 50°51' E 001°26'1313.0
2014-Jul-22 05:33N 50°39' E 001°16'1413.9
2014-Jul-22 04:33N 50°30' E 001°00'1614.3
2014-Jul-22 03:26N 50°26' E 000°36'1214.1
2014-Jul-22 02:33N 50°22' E 000°17'4212.9
2014-Jul-21 23:18N 50°11' W 000°46'912.0
2014-Jul-21 22:33N 50°09' W 000°60'1211.7
2014-Jul-21 21:30N 50°07' W 001°18'1111.7
2014-Jul-21 20:33N 50°04' W 001°35'312.0
2014-Jul-21 20:18N 50°03' W 001°40'912.3
2014-Jul-21 19:33N 49°59' W 001°53'1413.3
2014-Jul-21 18:28N 49°55' W 002°14'  
2014-Jul-19 04:30N 38°11' W 009°41'1313.4
2014-Jul-19 03:33N 37°59' W 009°37'1413.5
2014-Jul-19 02:33N 37°45' W 009°34'1313.4
2014-Jul-19 01:33N 37°32' W 009°31'5112.8
2014-Jul-18 21:33N 36°44' W 009°07'1313.0
2014-Jul-18 20:33N 36°43' W 008°52'1313.2
2014-Jul-18 19:33N 36°44' W 008°35'1312.9
2014-Jul-18 18:33N 36°45' W 008°19'1212.3
2014-Jul-18 17:33N 36°46' W 008°04'1212.0
2014-Jul-18 16:33N 36°47' W 007°49'1212.2
2014-Jul-18 15:33N 36°48' W 007°34'1312.7
2014-Jul-18 14:33N 36°49' W 007°18'  

Dump ship's entire track history